createdAt,value
2019-01-18T00:00:41.360Z,0
2019-01-18T00:01:51.284Z,0
2019-01-18T00:03:01.205Z,0
2019-01-18T00:04:10.874Z,0
2019-01-18T00:05:20.302Z,0
2019-01-18T00:06:29.979Z,0
2019-01-18T00:07:39.901Z,0
2019-01-18T00:08:49.317Z,0
2019-01-18T00:09:58.247Z,0
2019-01-18T00:11:07.658Z,0
2019-01-18T00:12:17.085Z,0
2019-01-18T00:13:26.257Z,0
2019-01-18T00:14:35.942Z,0
2019-01-18T00:15:45.606Z,0
2019-01-18T00:16:55.585Z,0
2019-01-18T00:18:05.253Z,0
2019-01-18T00:19:14.422Z,0
2019-01-18T00:20:24.094Z,0
2019-01-18T00:21:34.018Z,0
2019-01-18T00:22:43.687Z,0
2019-01-18T00:23:53.358Z,0
2019-01-18T00:25:02.774Z,0
2019-01-18T00:26:12.449Z,0
2019-01-18T00:27:22.119Z,0
2019-01-18T00:28:31.541Z,0
2019-01-18T00:29:41.222Z,0
2019-01-18T00:30:50.637Z,0
2019-01-18T00:32:00.316Z,0
2019-01-18T00:33:09.740Z,0
2019-01-18T00:34:19.418Z,0
2019-01-18T00:35:29.375Z,0
2019-01-18T00:36:39.297Z,0
2019-01-18T00:37:48.979Z,0
2019-01-18T00:38:58.395Z,0
2019-01-18T00:40:08.067Z,0
2019-01-18T00:41:17.741Z,0
2019-01-18T00:42:27.410Z,0
2019-01-18T00:43:36.332Z,0
2019-01-18T00:44:45.252Z,0
2019-01-18T00:45:54.918Z,0
2019-01-18T00:47:04.590Z,0
2019-01-18T00:48:14.259Z,0
2019-01-18T00:49:23.929Z,0
2019-01-18T00:50:33.842Z,0
2019-01-18T00:51:43.262Z,0
2019-01-18T00:52:53.178Z,0
2019-01-18T00:54:02.601Z,0
2019-01-18T00:55:11.770Z,0
2019-01-18T00:56:20.934Z,0
2019-01-18T00:57:30.100Z,0
2019-01-18T00:58:39.521Z,0
2019-01-18T00:59:48.934Z,0
2019-01-18T01:00:58.604Z,0
2019-01-18T01:02:07.772Z,0
2019-01-18T01:03:17.697Z,0
2019-01-18T01:04:27.365Z,0
2019-01-18T01:05:37.039Z,0
2019-01-18T01:06:46.712Z,0
2019-01-18T01:07:55.882Z,0
2019-01-18T01:09:05.807Z,0
2019-01-18T01:10:15.516Z,0
2019-01-18T01:11:25.183Z,0
2019-01-18T01:12:34.868Z,0
2019-01-18T01:13:44.542Z,0
2019-01-18T01:14:54.477Z,0
2019-01-18T01:16:03.647Z,0
2019-01-18T01:17:13.062Z,0
2019-01-18T01:18:22.984Z,0
2019-01-18T01:19:32.649Z,0
2019-01-18T01:20:42.069Z,0
2019-01-18T01:21:51.493Z,0
2019-01-18T01:23:01.158Z,0
2019-01-18T01:24:10.832Z,0
2019-01-18T01:25:20.249Z,0
2019-01-18T01:26:29.917Z,0
2019-01-18T01:27:39.586Z,0
2019-01-18T01:28:49.260Z,0
2019-01-18T01:29:59.175Z,0
2019-01-18T01:31:10.054Z,0
2019-01-18T01:32:19.725Z,0
2019-01-18T01:33:29.148Z,0
2019-01-18T01:34:38.813Z,0
2019-01-18T01:35:48.483Z,0
2019-01-18T01:36:58.404Z,0
2019-01-18T01:38:08.336Z,0
2019-01-18T01:39:18.003Z,0
2019-01-18T01:40:27.930Z,0
2019-01-18T01:41:37.347Z,0
2019-01-18T01:42:46.780Z,0
2019-01-18T01:43:56.484Z,0
2019-01-18T01:45:06.954Z,0
2019-01-18T01:46:16.622Z,0
2019-01-18T01:47:26.566Z,0
2019-01-18T01:48:36.240Z,0
2019-01-18T01:49:46.207Z,0
2019-01-18T01:50:55.878Z,0
2019-01-18T01:52:05.797Z,0
2019-01-18T01:53:15.463Z,0
2019-01-18T01:54:24.627Z,0
2019-01-18T01:55:34.302Z,0
2019-01-18T01:56:44.221Z,0
2019-01-18T01:57:53.396Z,0
2019-01-18T01:59:03.074Z,0
2019-01-18T02:00:12.493Z,0
2019-01-18T02:01:22.419Z,0
2019-01-18T02:02:32.339Z,0
2019-01-18T02:03:42.018Z,0
2019-01-18T02:04:51.441Z,0
2019-01-18T02:06:01.109Z,0
2019-01-18T02:07:10.783Z,0
2019-01-18T02:08:20.701Z,0
2019-01-18T02:09:30.621Z,0
2019-01-18T02:10:39.786Z,0
2019-01-18T02:11:49.207Z,0
2019-01-18T02:12:58.888Z,0
2019-01-18T02:14:08.811Z,0
2019-01-18T02:15:18.233Z,0
2019-01-18T02:16:28.145Z,0
2019-01-18T02:17:37.812Z,0
2019-01-18T02:18:47.228Z,0
2019-01-18T02:19:56.397Z,0
2019-01-18T02:21:06.074Z,0
2019-01-18T02:22:15.740Z,0
2019-01-18T02:23:25.653Z,0
2019-01-18T02:24:35.576Z,0
2019-01-18T02:25:45.490Z,0
2019-01-18T02:26:55.169Z,0
2019-01-18T02:28:04.340Z,0
2019-01-18T02:29:14.255Z,0
2019-01-18T02:30:23.937Z,0
2019-01-18T02:31:33.370Z,0
2019-01-18T02:32:43.329Z,0
2019-01-18T02:33:52.758Z,0
2019-01-18T02:35:02.291Z,0
2019-01-18T02:36:11.710Z,0
2019-01-18T02:37:21.639Z,0
2019-01-18T02:38:31.309Z,0
2019-01-18T02:39:41.241Z,0
2019-01-18T02:40:51.180Z,0
2019-01-18T02:42:00.608Z,0
2019-01-18T02:43:10.292Z,0
2019-01-18T02:44:20.234Z,0
2019-01-18T02:45:30.186Z,0
2019-01-18T02:46:39.872Z,0
2019-01-18T02:47:49.299Z,0
2019-01-18T02:48:58.981Z,0
2019-01-18T02:50:08.916Z,0
2019-01-18T02:51:18.331Z,0
2019-01-18T02:52:27.787Z,0
2019-01-18T02:53:37.455Z,0
2019-01-18T02:54:47.388Z,0
2019-01-18T02:55:56.816Z,0
2019-01-18T02:57:06.508Z,0
2019-01-18T02:58:16.440Z,0
2019-01-18T02:59:26.357Z,0
2019-01-18T03:00:36.027Z,0
2019-01-18T03:01:45.448Z,0
2019-01-18T03:02:55.123Z,0
2019-01-18T03:04:04.806Z,0
2019-01-18T03:05:14.731Z,0
2019-01-18T03:06:24.420Z,0
2019-01-18T03:07:33.839Z,0
2019-01-18T03:08:43.508Z,0
2019-01-18T03:09:53.184Z,0
2019-01-18T03:11:02.867Z,0
2019-01-18T03:12:12.804Z,0
2019-01-18T03:13:22.480Z,0
2019-01-18T03:14:33.303Z,0
2019-01-18T03:15:42.989Z,0
2019-01-18T03:16:52.417Z,0
2019-01-18T03:18:02.123Z,0
2019-01-18T03:19:12.058Z,0
2019-01-18T03:20:21.984Z,0
2019-01-18T03:21:31.663Z,0
2019-01-18T03:22:41.341Z,0
2019-01-18T03:23:51.270Z,0
2019-01-18T03:25:00.943Z,0
2019-01-18T03:26:10.889Z,0
2019-01-18T03:27:20.068Z,0
2019-01-18T03:28:29.247Z,0
2019-01-18T03:29:38.475Z,0
2019-01-18T03:30:48.418Z,0
2019-01-18T03:31:58.367Z,0
2019-01-18T03:33:08.148Z,0
2019-01-18T03:34:17.599Z,0
2019-01-18T03:35:27.280Z,0
2019-01-18T03:36:36.949Z,0
2019-01-18T03:37:46.879Z,0
2019-01-18T03:38:56.799Z,0
2019-01-18T03:40:06.222Z,0
2019-01-18T03:41:15.640Z,0
2019-01-18T03:42:25.311Z,0
2019-01-18T03:43:35.233Z,0
2019-01-18T03:44:45.156Z,0
2019-01-18T03:45:55.081Z,0
2019-01-18T03:47:04.752Z,0
2019-01-18T03:48:14.681Z,0
2019-01-18T03:49:24.121Z,0
2019-01-18T03:50:34.041Z,0
2019-01-18T03:51:43.733Z,0
2019-01-18T03:52:53.417Z,0
2019-01-18T03:54:03.092Z,0
2019-01-18T03:55:13.007Z,0
2019-01-18T03:56:22.681Z,0
2019-01-18T03:57:32.371Z,0
2019-01-18T03:58:42.042Z,0
2019-01-18T03:59:51.221Z,0
2019-01-18T04:01:01.149Z,0
2019-01-18T04:02:10.825Z,0
2019-01-18T04:03:20.743Z,0
2019-01-18T04:04:30.420Z,0
2019-01-18T04:05:39.592Z,0
2019-01-18T04:06:49.038Z,0
2019-01-18T04:07:58.474Z,0
2019-01-18T04:09:08.159Z,0
2019-01-18T04:10:17.576Z,0
2019-01-18T04:11:27.241Z,0
2019-01-18T04:12:37.163Z,0
2019-01-18T04:13:46.848Z,0
2019-01-18T04:14:56.543Z,0
2019-01-18T04:16:06.468Z,0
2019-01-18T04:17:16.148Z,0
2019-01-18T04:18:26.077Z,0
2019-01-18T04:19:36.006Z,0
2019-01-18T04:20:45.437Z,0
2019-01-18T04:21:54.609Z,0
2019-01-18T04:23:04.056Z,0
2019-01-18T04:24:13.730Z,0
2019-01-18T04:25:22.902Z,0
2019-01-18T04:26:32.330Z,0
2019-01-18T04:27:42.004Z,0
2019-01-18T04:28:51.441Z,0
2019-01-18T04:30:01.366Z,0
2019-01-18T04:31:11.296Z,0
2019-01-18T04:32:20.965Z,0
2019-01-18T04:33:30.892Z,0
2019-01-18T04:34:40.819Z,0
2019-01-18T04:35:50.509Z,0
2019-01-18T04:37:00.176Z,0
2019-01-18T04:38:09.619Z,0
2019-01-18T04:39:19.290Z,0
2019-01-18T04:40:28.995Z,0
2019-01-18T04:41:38.660Z,0
2019-01-18T04:42:48.331Z,0
2019-01-18T04:43:58.260Z,0
2019-01-18T04:45:07.693Z,0
2019-01-18T04:46:17.612Z,0
2019-01-18T04:47:27.275Z,0
2019-01-18T04:48:37.200Z,0
2019-01-18T04:49:46.890Z,0
2019-01-18T04:50:56.565Z,0
2019-01-18T04:52:06.487Z,0
2019-01-18T04:53:16.161Z,0
2019-01-18T04:54:26.086Z,0
2019-01-18T04:55:35.514Z,0
2019-01-18T04:56:45.437Z,0
2019-01-18T04:57:55.356Z,0
2019-01-18T04:59:04.533Z,0
2019-01-18T05:00:13.967Z,0
2019-01-18T05:01:23.644Z,0
2019-01-18T05:02:33.311Z,0
2019-01-18T05:03:43.225Z,0
2019-01-18T05:04:52.900Z,0
2019-01-18T05:06:02.825Z,0
2019-01-18T05:07:12.752Z,0
2019-01-18T05:08:22.421Z,0
2019-01-18T05:09:31.847Z,0
2019-01-18T05:10:41.521Z,0
2019-01-18T05:11:51.464Z,0
2019-01-18T05:13:01.143Z,0
2019-01-18T05:14:10.390Z,0
2019-01-18T05:15:20.336Z,0
2019-01-18T05:16:30.018Z,0
2019-01-18T05:17:39.938Z,0
2019-01-18T05:18:49.628Z,0
2019-01-18T05:19:59.565Z,0
2019-01-18T05:21:09.489Z,0
2019-01-18T05:22:18.970Z,0
2019-01-18T05:23:28.898Z,0
2019-01-18T05:24:38.576Z,0
2019-01-18T05:25:48.264Z,0
2019-01-18T05:26:57.941Z,0
2019-01-18T05:28:07.619Z,0
2019-01-18T05:29:17.036Z,0
2019-01-18T05:30:26.708Z,0
2019-01-18T05:31:36.632Z,0
2019-01-18T05:32:45.812Z,0
2019-01-18T05:33:55.730Z,0
2019-01-18T05:35:05.415Z,0
2019-01-18T05:36:15.088Z,0
2019-01-18T05:37:24.501Z,0
2019-01-18T05:38:34.423Z,0
2019-01-18T05:39:44.096Z,0
2019-01-18T05:40:53.792Z,0
2019-01-18T05:42:03.227Z,0
2019-01-18T05:43:12.661Z,0
2019-01-18T05:44:22.087Z,0
2019-01-18T05:45:31.267Z,0
2019-01-18T05:46:40.940Z,0
2019-01-18T05:47:50.907Z,0
2019-01-18T05:49:00.839Z,0
2019-01-18T05:50:10.512Z,0
2019-01-18T05:51:20.186Z,0
2019-01-18T05:52:30.125Z,0
2019-01-18T05:53:40.050Z,0
2019-01-18T05:54:49.780Z,0
2019-01-18T05:55:59.457Z,0
2019-01-18T05:57:09.375Z,0
2019-01-18T05:58:19.043Z,0
2019-01-18T05:59:28.725Z,0
2019-01-18T06:00:38.407Z,0
2019-01-18T06:01:47.596Z,0
2019-01-18T06:02:56.829Z,0
2019-01-18T06:04:06.502Z,0
2019-01-18T06:05:16.424Z,0
2019-01-18T06:06:26.095Z,0
2019-01-18T06:07:36.036Z,0
2019-01-18T06:08:45.225Z,0
2019-01-18T06:09:55.142Z,0
2019-01-18T06:11:04.317Z,0
2019-01-18T06:12:13.741Z,0
2019-01-18T06:13:23.168Z,0
2019-01-18T06:14:32.588Z,0
2019-01-18T06:15:43.076Z,0
2019-01-18T06:16:53.002Z,0
2019-01-18T06:18:02.931Z,0
2019-01-18T06:19:12.684Z,0
2019-01-18T06:20:21.857Z,0
2019-01-18T06:21:31.274Z,0
2019-01-18T06:22:40.700Z,0
2019-01-18T06:23:50.376Z,0
2019-01-18T06:25:00.252Z,0
2019-01-18T06:26:10.189Z,0
2019-01-18T06:27:20.125Z,0
2019-01-18T06:28:29.547Z,0
2019-01-18T06:29:39.515Z,0
2019-01-18T06:30:49.438Z,0
2019-01-18T06:31:59.106Z,0
2019-01-18T06:33:08.780Z,0
2019-01-18T06:34:18.461Z,0
2019-01-18T06:35:28.147Z,0
2019-01-18T06:36:37.600Z,0
2019-01-18T06:37:47.268Z,0
2019-01-18T06:38:56.439Z,0
2019-01-18T06:40:06.108Z,0
2019-01-18T06:41:15.526Z,0
2019-01-18T06:42:25.197Z,0
2019-01-18T06:43:34.863Z,0
2019-01-18T06:44:44.288Z,0
2019-01-18T06:45:53.959Z,0
2019-01-18T06:47:03.871Z,0
2019-01-18T06:48:13.292Z,0
2019-01-18T06:49:22.711Z,0
2019-01-18T06:50:32.137Z,0
2019-01-18T06:51:41.555Z,0
2019-01-18T06:52:50.977Z,0
2019-01-18T06:54:00.646Z,0
2019-01-18T06:55:10.331Z,0
2019-01-18T06:56:19.758Z,0
2019-01-18T06:57:29.431Z,0
2019-01-18T06:58:38.852Z,0
2019-01-18T06:59:48.819Z,0
2019-01-18T07:00:57.984Z,0
2019-01-18T07:02:07.649Z,0
2019-01-18T07:03:16.820Z,0
2019-01-18T07:04:26.489Z,0
2019-01-18T07:05:36.404Z,0
2019-01-18T07:06:46.078Z,0
2019-01-18T07:07:55.753Z,0
2019-01-18T07:09:05.670Z,0
2019-01-18T07:10:20.602Z,0
2019-01-18T07:11:30.859Z,0
2019-01-18T07:12:40.531Z,0
2019-01-18T07:13:49.995Z,0
2019-01-18T07:14:59.672Z,0
2019-01-18T07:16:09.145Z,0
2019-01-18T07:17:18.568Z,0
2019-01-18T07:18:28.334Z,5
2019-01-18T07:19:38.007Z,5
2019-01-18T07:20:47.678Z,5
2019-01-18T07:21:57.600Z,5
2019-01-18T07:23:07.014Z,5
2019-01-18T07:24:16.452Z,5
2019-01-18T07:25:25.656Z,10
2019-01-18T07:26:35.325Z,10
2019-01-18T07:27:44.747Z,10
2019-01-18T07:28:54.417Z,10
2019-01-18T07:30:04.096Z,10
2019-01-18T07:31:19.969Z,15
2019-01-18T07:32:44.069Z,15
2019-01-18T07:33:53.747Z,15
2019-01-18T07:35:03.410Z,20
2019-01-18T07:36:13.078Z,20
2019-01-18T07:37:22.746Z,20
2019-01-18T07:38:32.668Z,20
2019-01-18T07:39:42.362Z,25
2019-01-18T07:40:52.032Z,25
2019-01-18T07:42:01.947Z,25
2019-01-18T07:43:11.621Z,30
2019-01-18T07:44:21.289Z,30
2019-01-18T07:45:31.219Z,30
2019-01-18T07:46:41.138Z,35
2019-01-18T07:47:50.561Z,35
2019-01-18T07:49:00.244Z,35
2019-01-18T07:50:10.165Z,40
2019-01-18T07:51:19.342Z,40
2019-01-18T07:52:29.006Z,40
2019-01-18T07:53:38.424Z,45
2019-01-18T07:54:48.093Z,45
2019-01-18T07:55:57.519Z,45
2019-01-18T07:57:06.933Z,50
2019-01-18T07:58:16.349Z,50
2019-01-18T07:59:26.263Z,55
2019-01-18T08:00:35.435Z,55
2019-01-18T08:01:45.356Z,55
2019-01-18T08:02:55.276Z,60
2019-01-18T08:04:04.950Z,60
2019-01-18T08:05:14.620Z,60
2019-01-18T08:06:24.040Z,65
2019-01-18T08:07:33.462Z,65
2019-01-18T08:08:43.131Z,65
2019-01-18T08:09:52.551Z,70
2019-01-18T08:11:01.970Z,70
2019-01-18T08:12:11.395Z,70
2019-01-18T08:13:20.814Z,75
2019-01-18T08:14:30.484Z,75
2019-01-18T08:15:39.962Z,75
2019-01-18T08:16:50.780Z,75
2019-01-18T08:18:00.199Z,80
2019-01-18T08:19:09.617Z,80
2019-01-18T08:20:19.557Z,80
2019-01-18T08:21:29.480Z,85
2019-01-18T08:22:38.913Z,85
2019-01-18T08:23:48.588Z,85
2019-01-18T08:24:58.009Z,90
2019-01-18T08:26:07.692Z,90
2019-01-18T08:27:17.364Z,90
2019-01-18T08:28:27.026Z,95
2019-01-18T08:29:36.700Z,95
2019-01-18T08:30:46.635Z,95
2019-01-18T08:31:56.566Z,100
2019-01-18T08:33:06.242Z,100
2019-01-18T08:34:15.411Z,100
2019-01-18T08:35:25.077Z,100
2019-01-18T08:36:34.743Z,105
2019-01-18T08:37:44.411Z,105
2019-01-18T08:38:54.335Z,105
2019-01-18T08:40:03.753Z,105
2019-01-18T08:41:13.423Z,110
2019-01-18T08:42:22.851Z,110
2019-01-18T08:43:31.520Z,110
2019-01-18T08:44:40.949Z,110
2019-01-18T08:45:50.870Z,110
2019-01-18T08:47:00.548Z,115
2019-01-18T08:48:10.473Z,115
2019-01-18T08:49:19.889Z,115
2019-01-18T08:50:29.807Z,115
2019-01-18T08:51:39.473Z,115
2019-01-18T08:52:49.143Z,120
2019-01-18T08:53:58.559Z,120
2019-01-18T08:55:08.486Z,120
2019-01-18T08:56:19.132Z,120
2019-01-18T08:57:28.800Z,120
2019-01-18T08:58:38.229Z,125
2019-01-18T08:59:47.898Z,125
2019-01-18T09:00:56.565Z,125
2019-01-18T09:02:05.743Z,125
2019-01-18T09:03:15.420Z,130
2019-01-18T09:04:25.095Z,130
2019-01-18T09:05:35.021Z,130
2019-01-18T09:06:44.441Z,130
2019-01-18T09:07:55.245Z,130
2019-01-18T09:09:04.981Z,135
2019-01-18T09:10:14.645Z,135
2019-01-18T09:11:24.565Z,135
2019-01-18T09:12:34.231Z,135
2019-01-18T09:13:44.153Z,135
2019-01-18T09:14:53.832Z,135
2019-01-18T09:16:03.753Z,135
2019-01-18T09:17:13.422Z,140
2019-01-18T09:18:23.085Z,140
2019-01-18T09:19:33.011Z,140
2019-01-18T09:20:42.706Z,145
2019-01-18T09:21:52.388Z,140
2019-01-18T09:23:02.312Z,145
2019-01-18T09:24:12.235Z,155
2019-01-18T09:25:21.917Z,165
2019-01-18T09:26:31.826Z,180
2019-01-18T09:27:41.744Z,185
2019-01-18T09:28:51.207Z,185
2019-01-18T09:30:00.883Z,180
2019-01-18T09:31:10.562Z,175
2019-01-18T09:32:19.982Z,175
2019-01-18T09:33:29.654Z,175
2019-01-18T09:34:39.578Z,185
2019-01-18T09:35:49.251Z,200
2019-01-18T09:36:58.919Z,210
2019-01-18T09:38:08.347Z,210
2019-01-18T09:39:17.766Z,215
2019-01-18T09:40:27.441Z,215
2019-01-18T09:41:36.617Z,220
2019-01-18T09:42:46.534Z,215
2019-01-18T09:43:56.210Z,205
2019-01-18T09:45:05.884Z,190
2019-01-18T09:46:15.306Z,200
2019-01-18T09:47:24.976Z,200
2019-01-18T09:48:34.903Z,190
2019-01-18T09:49:45.283Z,185
2019-01-18T09:50:54.960Z,185
2019-01-18T09:52:04.390Z,180
2019-01-18T09:53:13.822Z,170
2019-01-18T09:54:22.993Z,155
2019-01-18T09:55:32.420Z,165
2019-01-18T09:56:42.338Z,195
2019-01-18T09:57:52.258Z,215
2019-01-18T09:59:02.185Z,195
2019-01-18T10:00:12.110Z,200
2019-01-18T10:01:22.039Z,205
2019-01-18T10:02:31.957Z,210
2019-01-18T10:03:41.380Z,205
2019-01-18T10:04:50.801Z,180
2019-01-18T10:06:00.228Z,175
2019-01-18T10:07:09.905Z,165
2019-01-18T10:08:19.577Z,160
2019-01-18T10:09:29.248Z,160
2019-01-18T10:10:38.927Z,190
2019-01-18T10:11:48.606Z,195
2019-01-18T10:12:58.280Z,180
2019-01-18T10:14:07.953Z,170
2019-01-18T10:15:17.378Z,165
2019-01-18T10:16:26.801Z,175
2019-01-18T10:17:36.477Z,180
2019-01-18T10:18:45.654Z,185
2019-01-18T10:19:55.583Z,190
2019-01-18T10:21:04.750Z,200
2019-01-18T10:22:14.421Z,210
2019-01-18T10:23:24.340Z,225
2019-01-18T10:24:34.271Z,215
2019-01-18T10:25:43.955Z,230
2019-01-18T10:26:53.876Z,255
2019-01-18T10:28:03.303Z,255
2019-01-18T10:29:12.729Z,235
2019-01-18T10:30:22.456Z,215
2019-01-18T10:31:31.880Z,200
2019-01-18T10:32:41.550Z,180
2019-01-18T10:33:52.003Z,190
2019-01-18T10:35:01.679Z,200
2019-01-18T10:36:11.610Z,190
2019-01-18T10:37:21.036Z,190
2019-01-18T10:38:30.712Z,190
2019-01-18T10:39:40.386Z,190
2019-01-18T10:40:50.315Z,195
2019-01-18T10:42:00.245Z,185
2019-01-18T10:43:09.674Z,190
2019-01-18T10:44:19.348Z,200
2019-01-18T10:45:28.769Z,200
2019-01-18T10:46:38.441Z,185
2019-01-18T10:47:48.114Z,200
2019-01-18T10:48:57.545Z,205
2019-01-18T10:50:07.218Z,220
2019-01-18T10:51:17.141Z,235
2019-01-18T10:52:26.559Z,245
2019-01-18T10:53:36.241Z,265
2019-01-18T10:54:45.665Z,290
2019-01-18T10:55:55.337Z,305
2019-01-18T10:57:05.013Z,295
2019-01-18T10:58:14.689Z,300
2019-01-18T10:59:24.361Z,285
2019-01-18T11:00:34.282Z,265
2019-01-18T11:01:43.452Z,260
2019-01-18T11:02:53.122Z,250
2019-01-18T11:04:02.790Z,240
2019-01-18T11:05:12.460Z,225
2019-01-18T11:06:22.386Z,220
2019-01-18T11:07:32.058Z,210
2019-01-18T11:08:41.731Z,200
2019-01-18T11:09:51.403Z,210
2019-01-18T11:11:00.578Z,205
2019-01-18T11:12:09.746Z,200
2019-01-18T11:13:19.162Z,200
2019-01-18T11:14:28.830Z,200
2019-01-18T11:15:43.232Z,200
2019-01-18T11:16:52.902Z,205
2019-01-18T11:18:02.075Z,195
2019-01-18T11:19:12.002Z,200
2019-01-18T11:20:21.465Z,220
2019-01-18T11:21:31.138Z,230
2019-01-18T11:22:41.063Z,255
2019-01-18T11:23:50.235Z,255
2019-01-18T11:24:59.719Z,255
2019-01-18T11:26:09.635Z,240
2019-01-18T11:27:19.352Z,215
2019-01-18T11:28:29.019Z,205
2019-01-18T11:29:38.190Z,200
2019-01-18T11:30:48.121Z,210
2019-01-18T11:31:57.549Z,215
2019-01-18T11:33:06.725Z,220
2019-01-18T11:34:16.228Z,230
2019-01-18T11:35:25.654Z,250
2019-01-18T11:36:35.076Z,275
2019-01-18T11:37:44.505Z,320
2019-01-18T11:38:54.176Z,350
2019-01-18T11:40:03.850Z,345
2019-01-18T11:41:13.274Z,285
2019-01-18T11:42:23.202Z,240
2019-01-18T11:43:32.628Z,230
2019-01-18T11:44:42.302Z,245
2019-01-18T11:45:52.231Z,255
2019-01-18T11:47:01.901Z,265
2019-01-18T11:48:11.323Z,280
2019-01-18T11:49:20.998Z,305
2019-01-18T11:50:30.429Z,305
2019-01-18T11:51:39.850Z,330
2019-01-18T11:52:49.270Z,330
2019-01-18T11:53:58.697Z,320
2019-01-18T11:55:08.378Z,330
2019-01-18T11:56:17.849Z,325
2019-01-18T11:57:27.521Z,325
2019-01-18T11:58:36.951Z,325
2019-01-18T11:59:49.070Z,310
2019-01-18T12:00:59.912Z,310
2019-01-18T12:02:15.081Z,305
2019-01-18T12:03:25.627Z,310
2019-01-18T12:04:35.293Z,325
2019-01-18T12:05:45.217Z,330
2019-01-18T12:06:54.899Z,330
2019-01-18T12:08:04.578Z,345
2019-01-18T12:09:14.503Z,350
2019-01-18T12:10:24.178Z,390
2019-01-18T12:11:35.050Z,425
2019-01-18T12:12:44.729Z,460
2019-01-18T12:13:54.664Z,435
2019-01-18T12:15:04.589Z,430
2019-01-18T12:16:14.261Z,440
2019-01-18T12:17:24.190Z,445
2019-01-18T12:18:34.111Z,425
2019-01-18T12:19:43.536Z,365
2019-01-18T12:20:53.212Z,290
2019-01-18T12:22:02.640Z,245
2019-01-18T12:23:11.808Z,225
2019-01-18T12:24:22.833Z,220
2019-01-18T12:25:32.752Z,210
2019-01-18T12:26:42.676Z,205
2019-01-18T12:27:51.843Z,190
2019-01-18T12:29:01.263Z,170
2019-01-18T12:30:10.958Z,165
2019-01-18T12:31:20.137Z,170
2019-01-18T12:32:35.699Z,180
2019-01-18T12:33:45.619Z,190
2019-01-18T12:34:55.294Z,200
2019-01-18T12:36:05.223Z,225
2019-01-18T12:37:14.655Z,240
2019-01-18T12:38:24.079Z,275
2019-01-18T12:39:33.758Z,290
2019-01-18T12:40:43.181Z,315
2019-01-18T12:41:53.110Z,340
2019-01-18T12:43:02.786Z,345
2019-01-18T12:44:12.457Z,330
2019-01-18T12:45:22.135Z,295
2019-01-18T12:46:31.570Z,260
2019-01-18T12:47:40.997Z,240
2019-01-18T12:48:50.918Z,240
2019-01-18T12:50:00.841Z,255
2019-01-18T12:51:10.769Z,265
2019-01-18T12:52:20.195Z,255
2019-01-18T12:53:29.496Z,240
2019-01-18T12:54:39.214Z,245
2019-01-18T12:55:48.927Z,245
2019-01-18T12:56:58.596Z,245
2019-01-18T12:58:08.274Z,245
2019-01-18T12:59:17.192Z,250
2019-01-18T13:00:26.869Z,245
2019-01-18T13:01:36.043Z,245
2019-01-18T13:02:45.969Z,255
2019-01-18T13:03:55.900Z,265
2019-01-18T13:05:05.080Z,275
2019-01-18T13:06:14.507Z,275
2019-01-18T13:07:23.926Z,275
2019-01-18T13:08:33.096Z,285
2019-01-18T13:09:42.769Z,300
2019-01-18T13:10:52.214Z,295
2019-01-18T13:12:02.140Z,300
2019-01-18T13:13:12.068Z,280
2019-01-18T13:14:22.005Z,400
2019-01-18T13:15:31.933Z,490
2019-01-18T13:16:41.871Z,375
2019-01-18T13:17:51.302Z,255
2019-01-18T13:19:00.975Z,235
2019-01-18T13:20:10.397Z,220
2019-01-18T13:21:19.831Z,205
2019-01-18T13:22:33.356Z,185
2019-01-18T13:23:43.279Z,190
2019-01-18T13:24:52.956Z,195
2019-01-18T13:26:02.382Z,185
2019-01-18T13:27:12.056Z,165
2019-01-18T13:28:21.229Z,145
2019-01-18T13:29:31.176Z,125
2019-01-18T13:30:40.864Z,110
2019-01-18T13:31:50.047Z,100
2019-01-18T13:32:59.467Z,105
2019-01-18T13:34:12.425Z,115
2019-01-18T13:35:22.349Z,125
2019-01-18T13:36:31.516Z,135
2019-01-18T13:37:40.938Z,165
2019-01-18T13:38:50.612Z,200
2019-01-18T13:40:00.035Z,240
2019-01-18T13:41:09.964Z,265
2019-01-18T13:42:19.906Z,255
2019-01-18T13:43:29.586Z,245
2019-01-18T13:44:43.492Z,245
2019-01-18T13:45:53.365Z,230
2019-01-18T13:47:02.810Z,205
2019-01-18T13:48:12.234Z,175
2019-01-18T13:49:21.660Z,150
2019-01-18T13:50:31.081Z,140
2019-01-18T13:51:40.755Z,135
2019-01-18T13:52:51.221Z,130
2019-01-18T13:54:01.155Z,110
2019-01-18T13:55:10.830Z,100
2019-01-18T13:56:20.551Z,95
2019-01-18T13:57:30.249Z,90
2019-01-18T13:58:40.208Z,90
2019-01-18T13:59:50.132Z,95
2019-01-18T14:00:59.557Z,100
2019-01-18T14:02:09.231Z,90
2019-01-18T14:03:18.967Z,115
2019-01-18T14:04:28.895Z,185
2019-01-18T14:05:38.099Z,315
2019-01-18T14:06:47.343Z,315
2019-01-18T14:08:00.398Z,170
2019-01-18T14:09:10.072Z,85
2019-01-18T14:10:19.748Z,100
2019-01-18T14:11:29.457Z,100
2019-01-18T14:12:38.876Z,115
2019-01-18T14:13:48.807Z,140
2019-01-18T14:14:58.486Z,135
2019-01-18T14:16:08.158Z,150
2019-01-18T14:17:17.582Z,185
2019-01-18T14:18:27.504Z,255
2019-01-18T14:19:37.432Z,555
2019-01-18T14:20:47.364Z,515
2019-01-18T14:21:56.550Z,545
2019-01-18T14:23:06.237Z,470
2019-01-18T14:24:15.908Z,540
2019-01-18T14:25:25.345Z,620
2019-01-18T14:26:34.771Z,635
2019-01-18T14:27:44.200Z,620
2019-01-18T14:28:53.629Z,580
2019-01-18T14:30:03.561Z,220
2019-01-18T14:31:12.989Z,290
2019-01-18T14:32:22.922Z,175
2019-01-18T14:33:32.598Z,170
2019-01-18T14:34:42.267Z,145
2019-01-18T14:35:51.694Z,135
2019-01-18T14:37:01.375Z,150
2019-01-18T14:38:11.301Z,155
2019-01-18T14:39:20.747Z,170
2019-01-18T14:40:30.429Z,300
2019-01-18T14:41:40.628Z,395
2019-01-18T14:42:50.556Z,250
2019-01-18T14:44:00.260Z,210
2019-01-18T14:45:09.937Z,280
2019-01-18T14:46:19.867Z,165
2019-01-18T14:47:29.037Z,165
2019-01-18T14:48:38.975Z,125
2019-01-18T14:49:48.659Z,120
2019-01-18T14:50:58.093Z,110
2019-01-18T14:52:07.358Z,105
2019-01-18T14:53:17.029Z,100
2019-01-18T14:54:26.711Z,100
2019-01-18T14:55:36.396Z,100
2019-01-18T14:56:46.074Z,95
2019-01-18T14:57:55.509Z,95
2019-01-18T14:59:05.433Z,95
2019-01-18T15:00:14.868Z,90
2019-01-18T15:01:24.298Z,90
2019-01-18T15:02:33.975Z,85
2019-01-18T15:03:43.900Z,85
2019-01-18T15:04:53.579Z,85
2019-01-18T15:06:03.006Z,85
2019-01-18T15:07:12.428Z,80
2019-01-18T15:08:28.796Z,80
2019-01-18T15:09:38.218Z,75
2019-01-18T15:10:47.898Z,75
2019-01-18T15:11:57.572Z,75
2019-01-18T15:13:07.004Z,70
2019-01-18T15:14:16.930Z,70
2019-01-18T15:15:26.870Z,65
2019-01-18T15:16:36.801Z,60
2019-01-18T15:17:46.482Z,55
2019-01-18T15:18:56.407Z,55
2019-01-18T15:20:06.081Z,50
2019-01-18T15:21:15.757Z,45
2019-01-18T15:22:25.181Z,45
2019-01-18T15:23:35.151Z,40
2019-01-18T15:24:45.891Z,40
2019-01-18T15:25:55.070Z,40
2019-01-18T15:27:04.240Z,35
2019-01-18T15:28:13.664Z,35
2019-01-18T15:29:23.349Z,30
2019-01-18T15:30:33.273Z,30
2019-01-18T15:31:42.948Z,25
2019-01-18T15:32:52.638Z,25
2019-01-18T15:34:03.513Z,25
2019-01-18T15:35:13.486Z,20
2019-01-18T15:36:23.223Z,20
2019-01-18T15:37:32.427Z,20
2019-01-18T15:38:41.849Z,15
2019-01-18T15:39:51.532Z,15
2019-01-18T15:41:00.971Z,15
2019-01-18T15:42:10.645Z,10
2019-01-18T15:43:20.094Z,10
2019-01-18T15:44:30.018Z,10
2019-01-18T15:45:39.942Z,10
2019-01-18T15:46:49.378Z,5
2019-01-18T15:47:59.055Z,5
2019-01-18T15:49:08.722Z,5
2019-01-18T15:50:18.397Z,5
2019-01-18T15:51:28.317Z,5
2019-01-18T15:52:38.237Z,5
2019-01-18T15:53:47.915Z,5
2019-01-18T15:54:57.336Z,5
2019-01-18T15:56:06.763Z,0
2019-01-18T15:57:15.934Z,0
2019-01-18T15:58:25.857Z,0
2019-01-18T15:59:35.580Z,0
2019-01-18T16:00:45.259Z,0
2019-01-18T16:01:54.936Z,0
2019-01-18T16:03:04.899Z,0
2019-01-18T16:04:14.479Z,0
2019-01-18T16:05:24.154Z,0
2019-01-18T16:06:34.130Z,0
2019-01-18T16:07:43.554Z,0
2019-01-18T16:08:52.744Z,0
2019-01-18T16:10:02.281Z,0
2019-01-18T16:11:12.006Z,0
2019-01-18T16:12:21.940Z,0
2019-01-18T16:13:31.618Z,0
2019-01-18T16:14:40.800Z,0
2019-01-18T16:15:50.720Z,0
2019-01-18T16:17:00.145Z,0
2019-01-18T16:18:09.827Z,0
2019-01-18T16:19:19.499Z,0
2019-01-18T16:20:29.199Z,0
2019-01-18T16:21:38.880Z,0
2019-01-18T16:22:48.067Z,0
2019-01-18T16:23:57.758Z,0
2019-01-18T16:25:07.308Z,0
2019-01-18T16:26:16.738Z,0
2019-01-18T16:27:26.412Z,0
2019-01-18T16:28:36.088Z,0
2019-01-18T16:29:45.776Z,0
2019-01-18T16:30:55.199Z,0
2019-01-18T16:32:04.881Z,0
2019-01-18T16:33:14.304Z,0
2019-01-18T16:34:24.253Z,0
2019-01-18T16:35:33.679Z,0
2019-01-18T16:36:42.855Z,0
2019-01-18T16:37:52.544Z,0
2019-01-18T16:39:02.223Z,0